Terminal Aerodrome Forecast
Issued by NWS

Home | Current Version | Previous Version | Graphics & Text | Print | Product List | Glossary On
Versions: 1 2 3 4 5 6 7 8 9 10 11 12 13
000
FTUS41 KCLE 240531
TAFFDY
TAF
KFDY 240531Z 2406/2506 24004KT P6SM FEW015 BKN090
      TEMPO 2409/2413 4SM BR BKN015
     FM241300 31008KT P6SM BKN015
     FM241800 33010KT P6SM BKN035
     FM250100 01005KT P6SM SCT040=

USA.gov is the U.S. government's official web portal to all federal, state and local government web resources and services.